sensor_id;sensor_type;location;lat;lon;timestamp;P1;durP1;ratioP1;P2;durP2;ratioP2
49828;SDS011;35723;51.194;5.112;2023-04-12T00:02:23;9.05;;;2.17;;
49828;SDS011;35723;51.194;5.112;2023-04-12T00:04:49;13.38;;;2.90;;
49828;SDS011;35723;51.194;5.112;2023-04-12T00:07:19;12.95;;;2.20;;
49828;SDS011;35723;51.194;5.112;2023-04-12T00:09:46;9.63;;;2.10;;
49828;SDS011;35723;51.194;5.112;2023-04-12T00:12:12;9.90;;;2.20;;
49828;SDS011;35723;51.194;5.112;2023-04-12T00:14:37;12.35;;;2.10;;
49828;SDS011;35723;51.194;5.112;2023-04-12T00:17:03;10.20;;;2.28;;
49828;SDS011;35723;51.194;5.112;2023-04-12T00:19:29;9.52;;;1.90;;
49828;SDS011;35723;51.194;5.112;2023-04-12T00:21:55;8.90;;;2.08;;
49828;SDS011;35723;51.194;5.112;2023-04-12T00:24:21;11.25;;;2.08;;
49828;SDS011;35723;51.194;5.112;2023-04-12T00:26:46;9.27;;;2.13;;
49828;SDS011;35723;51.194;5.112;2023-04-12T00:29:12;11.52;;;2.45;;
49828;SDS011;35723;51.194;5.112;2023-04-12T00:31:38;15.60;;;3.10;;
49828;SDS011;35723;51.194;5.112;2023-04-12T00:34:03;7.05;;;2.40;;
49828;SDS011;35723;51.194;5.112;2023-04-12T00:36:29;14.48;;;3.72;;
49828;SDS011;35723;51.194;5.112;2023-04-12T00:38:55;8.82;;;3.10;;
49828;SDS011;35723;51.194;5.112;2023-04-12T00:41:21;14.77;;;4.03;;
49828;SDS011;35723;51.194;5.112;2023-04-12T00:43:48;13.88;;;3.80;;
49828;SDS011;35723;51.194;5.112;2023-04-12T00:46:14;14.65;;;3.92;;
49828;SDS011;35723;51.194;5.112;2023-04-12T00:48:41;12.27;;;3.83;;
49828;SDS011;35723;51.194;5.112;2023-04-12T00:51:08;14.23;;;4.63;;
49828;SDS011;35723;51.194;5.112;2023-04-12T00:53:34;16.30;;;4.03;;
49828;SDS011;35723;51.194;5.112;2023-04-12T00:56:02;15.02;;;3.92;;
49828;SDS011;35723;51.194;5.112;2023-04-12T00:58:28;15.40;;;3.67;;
49828;SDS011;35723;51.194;5.112;2023-04-12T01:00:55;11.85;;;3.13;;
49828;SDS011;35723;51.194;5.112;2023-04-12T01:03:21;10.30;;;3.08;;
49828;SDS011;35723;51.194;5.112;2023-04-12T01:06:08;9.27;;;2.60;;
49828;SDS011;35723;51.194;5.112;2023-04-12T01:09:02;10.85;;;2.65;;
49828;SDS011;35723;51.194;5.112;2023-04-12T01:12:05;14.35;;;2.63;;
49828;SDS011;35723;51.194;5.112;2023-04-12T01:17:17;7.30;;;1.85;;
49828;SDS011;35723;51.194;5.112;2023-04-12T01:28:10;6.72;;;1.80;;
49828;SDS011;35723;51.194;5.112;2023-04-12T01:30:46;11.20;;;2.33;;
49828;SDS011;35723;51.194;5.112;2023-04-12T01:33:15;5.18;;;1.90;;
49828;SDS011;35723;51.194;5.112;2023-04-12T01:35:42;8.65;;;2.08;;
49828;SDS011;35723;51.194;5.112;2023-04-12T01:38:09;8.73;;;2.17;;
49828;SDS011;35723;51.194;5.112;2023-04-12T01:40:35;11.27;;;2.53;;
49828;SDS011;35723;51.194;5.112;2023-04-12T01:43:08;11.52;;;2.28;;
49828;SDS011;35723;51.194;5.112;2023-04-12T01:45:36;8.20;;;2.03;;
49828;SDS011;35723;51.194;5.112;2023-04-12T01:48:03;10.68;;;2.00;;
49828;SDS011;35723;51.194;5.112;2023-04-12T01:50:35;8.10;;;2.10;;
49828;SDS011;35723;51.194;5.112;2023-04-12T01:53:22;7.45;;;2.20;;
49828;SDS011;35723;51.194;5.112;2023-04-12T01:56:12;6.40;;;1.88;;
49828;SDS011;35723;51.194;5.112;2023-04-12T01:58:40;11.48;;;2.55;;
49828;SDS011;35723;51.194;5.112;2023-04-12T02:01:08;8.07;;;2.30;;
49828;SDS011;35723;51.194;5.112;2023-04-12T02:03:38;11.27;;;2.60;;
49828;SDS011;35723;51.194;5.112;2023-04-12T02:06:06;10.82;;;2.42;;
49828;SDS011;35723;51.194;5.112;2023-04-12T02:08:33;8.40;;;2.58;;
49828;SDS011;35723;51.194;5.112;2023-04-12T02:11:00;6.38;;;2.38;;
49828;SDS011;35723;51.194;5.112;2023-04-12T02:13:25;8.82;;;2.35;;
49828;SDS011;35723;51.194;5.112;2023-04-12T02:15:51;8.93;;;2.30;;
49828;SDS011;35723;51.194;5.112;2023-04-12T02:18:23;10.93;;;2.80;;
49828;SDS011;35723;51.194;5.112;2023-04-12T02:20:48;8.02;;;2.40;;
49828;SDS011;35723;51.194;5.112;2023-04-12T02:23:14;10.98;;;2.15;;
49828;SDS011;35723;51.194;5.112;2023-04-12T02:25:40;6.75;;;2.00;;
49828;SDS011;35723;51.194;5.112;2023-04-12T02:28:06;7.93;;;1.60;;
49828;SDS011;35723;51.194;5.112;2023-04-12T02:30:31;7.13;;;1.92;;
49828;SDS011;35723;51.194;5.112;2023-04-12T02:32:57;5.50;;;1.80;;
49828;SDS011;35723;51.194;5.112;2023-04-12T02:35:23;6.03;;;1.73;;
49828;SDS011;35723;51.194;5.112;2023-04-12T02:37:49;5.20;;;1.40;;
49828;SDS011;35723;51.194;5.112;2023-04-12T02:40:15;7.60;;;1.55;;
49828;SDS011;35723;51.194;5.112;2023-04-12T02:42:41;6.53;;;1.60;;
49828;SDS011;35723;51.194;5.112;2023-04-12T02:45:08;6.68;;;1.80;;
49828;SDS011;35723;51.194;5.112;2023-04-12T02:47:34;6.60;;;1.50;;
49828;SDS011;35723;51.194;5.112;2023-04-12T02:50:00;6.63;;;1.80;;
49828;SDS011;35723;51.194;5.112;2023-04-12T02:52:26;6.13;;;1.40;;
49828;SDS011;35723;51.194;5.112;2023-04-12T02:54:54;6.82;;;1.45;;
49828;SDS011;35723;51.194;5.112;2023-04-12T02:57:22;4.22;;;1.40;;
49828;SDS011;35723;51.194;5.112;2023-04-12T02:59:49;7.40;;;1.60;;
49828;SDS011;35723;51.194;5.112;2023-04-12T03:02:17;4.20;;;1.50;;
49828;SDS011;35723;51.194;5.112;2023-04-12T03:04:46;5.78;;;1.98;;
49828;SDS011;35723;51.194;5.112;2023-04-12T03:07:15;8.98;;;1.55;;
49828;SDS011;35723;51.194;5.112;2023-04-12T03:09:42;5.03;;;1.60;;
49828;SDS011;35723;51.194;5.112;2023-04-12T03:12:09;6.20;;;1.80;;
49828;SDS011;35723;51.194;5.112;2023-04-12T03:14:34;7.40;;;1.92;;
49828;SDS011;35723;51.194;5.112;2023-04-12T03:17:00;7.82;;;2.00;;
49828;SDS011;35723;51.194;5.112;2023-04-12T03:19:26;7.18;;;1.60;;
49828;SDS011;35723;51.194;5.112;2023-04-12T03:21:53;8.98;;;2.10;;
49828;SDS011;35723;51.194;5.112;2023-04-12T03:24:18;8.98;;;2.42;;
49828;SDS011;35723;51.194;5.112;2023-04-12T03:26:44;9.23;;;2.40;;
49828;SDS011;35723;51.194;5.112;2023-04-12T03:29:11;6.93;;;2.35;;
49828;SDS011;35723;51.194;5.112;2023-04-12T03:31:36;10.25;;;2.50;;
49828;SDS011;35723;51.194;5.112;2023-04-12T03:34:02;7.68;;;2.80;;
49828;SDS011;35723;51.194;5.112;2023-04-12T03:36:28;8.80;;;3.00;;
49828;SDS011;35723;51.194;5.112;2023-04-12T03:38:54;7.45;;;2.67;;
49828;SDS011;35723;51.194;5.112;2023-04-12T03:41:21;7.75;;;2.80;;
49828;SDS011;35723;51.194;5.112;2023-04-12T03:43:49;7.47;;;2.60;;
49828;SDS011;35723;51.194;5.112;2023-04-12T03:46:15;8.80;;;2.40;;
49828;SDS011;35723;51.194;5.112;2023-04-12T03:48:41;6.47;;;2.00;;
49828;SDS011;35723;51.194;5.112;2023-04-12T03:51:07;5.68;;;1.83;;
49828;SDS011;35723;51.194;5.112;2023-04-12T03:53:36;8.55;;;2.10;;
49828;SDS011;35723;51.194;5.112;2023-04-12T03:56:02;5.57;;;1.85;;
49828;SDS011;35723;51.194;5.112;2023-04-12T03:58:28;5.35;;;1.73;;
49828;SDS011;35723;51.194;5.112;2023-04-12T04:00:54;8.25;;;1.90;;
49828;SDS011;35723;51.194;5.112;2023-04-12T04:03:20;5.43;;;1.80;;
49828;SDS011;35723;51.194;5.112;2023-04-12T04:05:53;5.95;;;1.80;;
49828;SDS011;35723;51.194;5.112;2023-04-12T04:08:20;3.88;;;1.38;;
49828;SDS011;35723;51.194;5.112;2023-04-12T04:10:46;7.47;;;1.85;;
49828;SDS011;35723;51.194;5.112;2023-04-12T04:13:12;4.85;;;1.60;;
49828;SDS011;35723;51.194;5.112;2023-04-12T04:15:37;6.35;;;1.88;;
49828;SDS011;35723;51.194;5.112;2023-04-12T04:18:03;7.00;;;1.70;;
49828;SDS011;35723;51.194;5.112;2023-04-12T04:20:29;5.30;;;1.70;;
49828;SDS011;35723;51.194;5.112;2023-04-12T04:22:55;3.28;;;1.52;;
49828;SDS011;35723;51.194;5.112;2023-04-12T04:25:21;6.72;;;1.77;;
49828;SDS011;35723;51.194;5.112;2023-04-12T04:27:48;7.28;;;1.83;;
49828;SDS011;35723;51.194;5.112;2023-04-12T04:30:15;6.32;;;2.00;;
49828;SDS011;35723;51.194;5.112;2023-04-12T04:32:40;5.20;;;1.40;;
49828;SDS011;35723;51.194;5.112;2023-04-12T04:35:07;5.97;;;1.60;;
49828;SDS011;35723;51.194;5.112;2023-04-12T04:37:32;4.13;;;1.58;;
49828;SDS011;35723;51.194;5.112;2023-04-12T04:40:01;6.28;;;1.67;;
49828;SDS011;35723;51.194;5.112;2023-04-12T04:42:33;4.68;;;1.60;;
49828;SDS011;35723;51.194;5.112;2023-04-12T04:44:59;5.68;;;1.65;;
49828;SDS011;35723;51.194;5.112;2023-04-12T04:47:29;7.07;;;2.00;;
49828;SDS011;35723;51.194;5.112;2023-04-12T04:49:55;7.55;;;1.98;;
49828;SDS011;35723;51.194;5.112;2023-04-12T04:52:22;7.68;;;1.75;;
49828;SDS011;35723;51.194;5.112;2023-04-12T04:54:48;7.72;;;1.80;;
49828;SDS011;35723;51.194;5.112;2023-04-12T04:57:13;6.32;;;1.60;;
49828;SDS011;35723;51.194;5.112;2023-04-12T04:59:39;6.00;;;1.80;;
49828;SDS011;35723;51.194;5.112;2023-04-12T05:02:05;6.60;;;1.63;;
49828;SDS011;35723;51.194;5.112;2023-04-12T05:04:31;5.88;;;1.50;;
49828;SDS011;35723;51.194;5.112;2023-04-12T05:06:57;3.38;;;1.63;;
49828;SDS011;35723;51.194;5.112;2023-04-12T05:09:22;6.88;;;1.60;;
49828;SDS011;35723;51.194;5.112;2023-04-12T05:11:48;6.38;;;1.70;;
49828;SDS011;35723;51.194;5.112;2023-04-12T05:14:13;4.05;;;1.70;;
49828;SDS011;35723;51.194;5.112;2023-04-12T05:16:39;4.20;;;1.70;;
49828;SDS011;35723;51.194;5.112;2023-04-12T05:19:05;6.35;;;1.85;;
49828;SDS011;35723;51.194;5.112;2023-04-12T05:21:31;7.10;;;1.80;;
49828;SDS011;35723;51.194;5.112;2023-04-12T05:23:57;3.40;;;1.35;;
49828;SDS011;35723;51.194;5.112;2023-04-12T05:26:23;7.43;;;1.60;;
49828;SDS011;35723;51.194;5.112;2023-04-12T05:28:49;4.57;;;1.60;;
49828;SDS011;35723;51.194;5.112;2023-04-12T05:31:14;8.02;;;1.92;;
49828;SDS011;35723;51.194;5.112;2023-04-12T05:33:40;5.05;;;1.80;;
49828;SDS011;35723;51.194;5.112;2023-04-12T05:36:06;5.68;;;1.70;;
49828;SDS011;35723;51.194;5.112;2023-04-12T05:38:31;6.50;;;1.75;;
49828;SDS011;35723;51.194;5.112;2023-04-12T05:40:57;5.93;;;1.60;;
49828;SDS011;35723;51.194;5.112;2023-04-12T05:43:23;3.10;;;1.50;;
49828;SDS011;35723;51.194;5.112;2023-04-12T05:45:51;6.22;;;1.80;;
49828;SDS011;35723;51.194;5.112;2023-04-12T05:48:17;4.75;;;1.25;;
49828;SDS011;35723;51.194;5.112;2023-04-12T05:50:49;5.32;;;1.70;;
49828;SDS011;35723;51.194;5.112;2023-04-12T05:53:18;4.05;;;1.48;;
49828;SDS011;35723;51.194;5.112;2023-04-12T05:55:43;5.80;;;1.50;;
49828;SDS011;35723;51.194;5.112;2023-04-12T05:58:10;5.68;;;1.92;;
49828;SDS011;35723;51.194;5.112;2023-04-12T06:00:35;5.45;;;1.48;;
49828;SDS011;35723;51.194;5.112;2023-04-12T06:03:02;3.92;;;1.40;;
49828;SDS011;35723;51.194;5.112;2023-04-12T06:05:28;4.95;;;1.75;;
49828;SDS011;35723;51.194;5.112;2023-04-12T06:07:54;4.15;;;1.70;;
49828;SDS011;35723;51.194;5.112;2023-04-12T06:10:20;4.28;;;1.70;;
49828;SDS011;35723;51.194;5.112;2023-04-12T06:12:45;6.00;;;2.00;;
49828;SDS011;35723;51.194;5.112;2023-04-12T06:15:11;3.95;;;1.63;;
49828;SDS011;35723;51.194;5.112;2023-04-12T06:17:37;4.60;;;1.58;;
49828;SDS011;35723;51.194;5.112;2023-04-12T06:20:03;5.50;;;1.67;;
49828;SDS011;35723;51.194;5.112;2023-04-12T06:22:33;5.35;;;1.58;;
49828;SDS011;35723;51.194;5.112;2023-04-12T06:24:59;4.07;;;1.70;;
49828;SDS011;35723;51.194;5.112;2023-04-12T06:27:25;5.85;;;1.70;;
49828;SDS011;35723;51.194;5.112;2023-04-12T06:29:51;4.15;;;1.70;;
49828;SDS011;35723;51.194;5.112;2023-04-12T06:32:17;5.93;;;1.80;;
49828;SDS011;35723;51.194;5.112;2023-04-12T06:34:42;5.57;;;1.88;;
49828;SDS011;35723;51.194;5.112;2023-04-12T06:37:08;2.67;;;1.80;;
49828;SDS011;35723;51.194;5.112;2023-04-12T06:39:34;4.60;;;1.90;;
49828;SDS011;35723;51.194;5.112;2023-04-12T06:41:59;6.38;;;2.30;;
49828;SDS011;35723;51.194;5.112;2023-04-12T06:44:25;7.70;;;2.25;;
49828;SDS011;35723;51.194;5.112;2023-04-12T06:46:52;8.10;;;2.35;;
49828;SDS011;35723;51.194;5.112;2023-04-12T06:49:17;7.90;;;2.10;;
49828;SDS011;35723;51.194;5.112;2023-04-12T06:51:43;8.18;;;2.63;;
49828;SDS011;35723;51.194;5.112;2023-04-12T06:54:09;9.60;;;2.60;;
49828;SDS011;35723;51.194;5.112;2023-04-12T06:56:36;8.10;;;2.40;;
49828;SDS011;35723;51.194;5.112;2023-04-12T06:59:02;12.73;;;3.17;;
49828;SDS011;35723;51.194;5.112;2023-04-12T07:01:27;8.32;;;2.85;;
49828;SDS011;35723;51.194;5.112;2023-04-12T07:03:53;6.88;;;2.72;;
49828;SDS011;35723;51.194;5.112;2023-04-12T07:06:19;9.05;;;2.78;;
49828;SDS011;35723;51.194;5.112;2023-04-12T07:08:44;11.82;;;3.13;;
49828;SDS011;35723;51.194;5.112;2023-04-12T07:11:10;7.63;;;2.80;;
49828;SDS011;35723;51.194;5.112;2023-04-12T07:13:36;8.82;;;2.95;;
49828;SDS011;35723;51.194;5.112;2023-04-12T07:16:02;8.43;;;2.80;;
49828;SDS011;35723;51.194;5.112;2023-04-12T07:18:27;11.45;;;3.05;;
49828;SDS011;35723;51.194;5.112;2023-04-12T07:20:54;12.05;;;3.25;;
49828;SDS011;35723;51.194;5.112;2023-04-12T07:23:21;11.10;;;3.28;;
49828;SDS011;35723;51.194;5.112;2023-04-12T07:25:47;10.25;;;3.10;;
49828;SDS011;35723;51.194;5.112;2023-04-12T07:28:13;11.38;;;3.30;;
49828;SDS011;35723;51.194;5.112;2023-04-12T07:30:38;11.75;;;3.08;;
49828;SDS011;35723;51.194;5.112;2023-04-12T07:33:04;16.17;;;3.50;;
49828;SDS011;35723;51.194;5.112;2023-04-12T07:35:31;13.68;;;3.13;;
49828;SDS011;35723;51.194;5.112;2023-04-12T07:37:57;10.40;;;3.25;;
49828;SDS011;35723;51.194;5.112;2023-04-12T07:40:23;10.38;;;3.78;;
49828;SDS011;35723;51.194;5.112;2023-04-12T07:42:48;16.75;;;3.78;;
49828;SDS011;35723;51.194;5.112;2023-04-12T07:45:14;12.05;;;3.88;;
49828;SDS011;35723;51.194;5.112;2023-04-12T07:47:40;14.85;;;3.92;;
49828;SDS011;35723;51.194;5.112;2023-04-12T07:50:06;14.70;;;3.88;;
49828;SDS011;35723;51.194;5.112;2023-04-12T07:52:32;13.52;;;3.97;;
49828;SDS011;35723;51.194;5.112;2023-04-12T07:54:58;16.00;;;4.20;;
49828;SDS011;35723;51.194;5.112;2023-04-12T07:57:24;17.17;;;4.28;;
49828;SDS011;35723;51.194;5.112;2023-04-12T07:59:50;16.75;;;4.10;;
49828;SDS011;35723;51.194;5.112;2023-04-12T08:02:16;17.73;;;4.47;;
49828;SDS011;35723;51.194;5.112;2023-04-12T08:04:49;16.40;;;4.20;;
49828;SDS011;35723;51.194;5.112;2023-04-12T08:07:15;15.00;;;4.45;;
49828;SDS011;35723;51.194;5.112;2023-04-12T08:09:41;16.35;;;4.47;;
49828;SDS011;35723;51.194;5.112;2023-04-12T08:12:06;18.92;;;4.57;;
49828;SDS011;35723;51.194;5.112;2023-04-12T08:14:32;17.48;;;4.40;;
49828;SDS011;35723;51.194;5.112;2023-04-12T08:16:58;18.00;;;4.32;;
49828;SDS011;35723;51.194;5.112;2023-04-12T08:19:23;19.77;;;4.22;;
49828;SDS011;35723;51.194;5.112;2023-04-12T08:21:49;15.02;;;3.60;;
49828;SDS011;35723;51.194;5.112;2023-04-12T08:24:15;17.50;;;3.50;;
49828;SDS011;35723;51.194;5.112;2023-04-12T08:26:40;13.80;;;3.40;;
49828;SDS011;35723;51.194;5.112;2023-04-12T08:29:06;16.65;;;3.88;;
49828;SDS011;35723;51.194;5.112;2023-04-12T08:31:32;14.25;;;3.90;;
49828;SDS011;35723;51.194;5.112;2023-04-12T08:33:58;16.38;;;3.58;;
49828;SDS011;35723;51.194;5.112;2023-04-12T08:36:24;14.07;;;4.43;;
49828;SDS011;35723;51.194;5.112;2023-04-12T08:38:51;14.63;;;4.20;;
49828;SDS011;35723;51.194;5.112;2023-04-12T08:41:19;18.27;;;4.07;;
49828;SDS011;35723;51.194;5.112;2023-04-12T08:43:45;20.85;;;4.80;;
49828;SDS011;35723;51.194;5.112;2023-04-12T08:46:13;19.70;;;4.45;;
49828;SDS011;35723;51.194;5.112;2023-04-12T08:48:39;18.70;;;4.60;;
49828;SDS011;35723;51.194;5.112;2023-04-12T08:51:07;19.00;;;4.38;;
49828;SDS011;35723;51.194;5.112;2023-04-12T08:53:35;15.88;;;4.45;;
49828;SDS011;35723;51.194;5.112;2023-04-12T08:56:02;24.33;;;4.40;;
49828;SDS011;35723;51.194;5.112;2023-04-12T08:58:31;16.30;;;4.18;;
49828;SDS011;35723;51.194;5.112;2023-04-12T09:00:57;18.50;;;3.78;;
49828;SDS011;35723;51.194;5.112;2023-04-12T09:03:24;22.63;;;4.43;;
49828;SDS011;35723;51.194;5.112;2023-04-12T09:05:50;16.67;;;3.83;;
49828;SDS011;35723;51.194;5.112;2023-04-12T09:08:15;17.17;;;3.83;;
49828;SDS011;35723;51.194;5.112;2023-04-12T09:10:41;17.63;;;3.50;;
49828;SDS011;35723;51.194;5.112;2023-04-12T09:13:07;22.80;;;4.63;;
49828;SDS011;35723;51.194;5.112;2023-04-12T09:15:33;24.17;;;4.57;;
49828;SDS011;35723;51.194;5.112;2023-04-12T09:18:06;18.30;;;3.85;;
49828;SDS011;35723;51.194;5.112;2023-04-12T09:20:36;18.50;;;4.00;;
49828;SDS011;35723;51.194;5.112;2023-04-12T09:23:18;20.55;;;4.32;;
49828;SDS011;35723;51.194;5.112;2023-04-12T09:25:45;24.08;;;4.50;;
49828;SDS011;35723;51.194;5.112;2023-04-12T09:28:18;15.52;;;3.85;;
49828;SDS011;35723;51.194;5.112;2023-04-12T09:30:44;21.27;;;4.13;;
49828;SDS011;35723;51.194;5.112;2023-04-12T09:33:15;23.00;;;4.20;;
49828;SDS011;35723;51.194;5.112;2023-04-12T09:35:41;19.65;;;4.32;;
49828;SDS011;35723;51.194;5.112;2023-04-12T09:38:08;24.27;;;4.40;;
49828;SDS011;35723;51.194;5.112;2023-04-12T09:40:34;23.77;;;4.60;;
49828;SDS011;35723;51.194;5.112;2023-04-12T09:43:01;25.20;;;4.63;;
49828;SDS011;35723;51.194;5.112;2023-04-12T09:45:28;21.08;;;4.60;;
49828;SDS011;35723;51.194;5.112;2023-04-12T09:47:55;20.90;;;4.25;;
49828;SDS011;35723;51.194;5.112;2023-04-12T09:50:28;23.20;;;4.60;;
49828;SDS011;35723;51.194;5.112;2023-04-12T09:52:57;25.23;;;3.88;;
49828;SDS011;35723;51.194;5.112;2023-04-12T09:55:25;19.65;;;3.85;;
49828;SDS011;35723;51.194;5.112;2023-04-12T09:57:52;23.92;;;4.03;;
49828;SDS011;35723;51.194;5.112;2023-04-12T10:00:21;23.30;;;3.95;;
49828;SDS011;35723;51.194;5.112;2023-04-12T10:02:48;24.05;;;3.90;;
49828;SDS011;35723;51.194;5.112;2023-04-12T10:05:16;20.48;;;3.35;;
49828;SDS011;35723;51.194;5.112;2023-04-12T10:07:43;24.63;;;3.65;;
49828;SDS011;35723;51.194;5.112;2023-04-12T10:10:10;20.40;;;3.92;;
49828;SDS011;35723;51.194;5.112;2023-04-12T10:12:38;22.65;;;3.95;;
49828;SDS011;35723;51.194;5.112;2023-04-12T10:15:06;19.08;;;3.00;;
49828;SDS011;35723;51.194;5.112;2023-04-12T10:17:43;24.25;;;3.85;;
49828;SDS011;35723;51.194;5.112;2023-04-12T10:20:10;21.45;;;3.47;;
49828;SDS011;35723;51.194;5.112;2023-04-12T10:22:38;25.98;;;4.00;;
49828;SDS011;35723;51.194;5.112;2023-04-12T10:25:11;21.23;;;3.35;;
49828;SDS011;35723;51.194;5.112;2023-04-12T10:27:40;20.60;;;3.83;;
49828;SDS011;35723;51.194;5.112;2023-04-12T10:30:20;18.98;;;3.22;;
49828;SDS011;35723;51.194;5.112;2023-04-12T10:33:11;19.77;;;3.05;;
49828;SDS011;35723;51.194;5.112;2023-04-12T10:38:12;19.60;;;3.40;;
49828;SDS011;35723;51.194;5.112;2023-04-12T10:40:38;23.30;;;3.05;;
49828;SDS011;35723;51.194;5.112;2023-04-12T10:43:46;27.75;;;4.15;;
49828;SDS011;35723;51.194;5.112;2023-04-12T10:49:22;18.67;;;3.10;;
49828;SDS011;35723;51.194;5.112;2023-04-12T10:54:43;20.70;;;3.00;;
49828;SDS011;35723;51.194;5.112;2023-04-12T10:57:39;21.90;;;3.28;;
49828;SDS011;35723;51.194;5.112;2023-04-12T11:00:04;16.27;;;3.03;;
49828;SDS011;35723;51.194;5.112;2023-04-12T11:02:31;19.02;;;3.10;;
49828;SDS011;35723;51.194;5.112;2023-04-12T11:05:08;19.67;;;2.70;;
49828;SDS011;35723;51.194;5.112;2023-04-12T11:07:38;19.67;;;3.00;;
49828;SDS011;35723;51.194;5.112;2023-04-12T11:10:12;16.20;;;2.80;;
49828;SDS011;35723;51.194;5.112;2023-04-12T11:12:39;17.17;;;2.60;;
49828;SDS011;35723;51.194;5.112;2023-04-12T11:15:05;21.25;;;3.75;;
49828;SDS011;35723;51.194;5.112;2023-04-12T11:17:31;18.20;;;2.75;;
49828;SDS011;35723;51.194;5.112;2023-04-12T11:19:58;20.17;;;3.00;;
49828;SDS011;35723;51.194;5.112;2023-04-12T11:22:28;22.27;;;3.33;;
49828;SDS011;35723;51.194;5.112;2023-04-12T11:24:59;16.23;;;2.45;;
49828;SDS011;35723;51.194;5.112;2023-04-12T11:27:26;19.63;;;3.25;;
49828;SDS011;35723;51.194;5.112;2023-04-12T11:29:54;13.38;;;2.58;;
49828;SDS011;35723;51.194;5.112;2023-04-12T11:32:22;15.57;;;2.50;;
49828;SDS011;35723;51.194;5.112;2023-04-12T11:34:48;14.02;;;2.45;;
49828;SDS011;35723;51.194;5.112;2023-04-12T11:37:16;18.30;;;2.47;;
49828;SDS011;35723;51.194;5.112;2023-04-12T11:39:43;19.50;;;2.90;;
49828;SDS011;35723;51.194;5.112;2023-04-12T11:42:17;15.57;;;2.60;;
49828;SDS011;35723;51.194;5.112;2023-04-12T11:44:44;17.30;;;3.03;;
49828;SDS011;35723;51.194;5.112;2023-04-12T11:47:17;15.18;;;2.63;;
49828;SDS011;35723;51.194;5.112;2023-04-12T11:49:47;13.82;;;2.53;;
49828;SDS011;35723;51.194;5.112;2023-04-12T11:52:21;15.05;;;2.83;;
49828;SDS011;35723;51.194;5.112;2023-04-12T11:54:52;19.70;;;2.80;;
49828;SDS011;35723;51.194;5.112;2023-04-12T11:57:20;17.08;;;2.80;;
49828;SDS011;35723;51.194;5.112;2023-04-12T11:59:46;13.95;;;2.67;;
49828;SDS011;35723;51.194;5.112;2023-04-12T12:02:13;18.30;;;2.80;;
49828;SDS011;35723;51.194;5.112;2023-04-12T12:04:44;17.23;;;2.67;;
49828;SDS011;35723;51.194;5.112;2023-04-12T12:07:11;13.20;;;2.38;;
49828;SDS011;35723;51.194;5.112;2023-04-12T12:09:41;14.65;;;2.60;;
49828;SDS011;35723;51.194;5.112;2023-04-12T12:12:11;12.98;;;2.20;;
49828;SDS011;35723;51.194;5.112;2023-04-12T12:14:38;13.30;;;2.15;;
49828;SDS011;35723;51.194;5.112;2023-04-12T12:17:14;16.65;;;2.45;;
49828;SDS011;35723;51.194;5.112;2023-04-12T12:19:41;13.32;;;2.38;;
49828;SDS011;35723;51.194;5.112;2023-04-12T12:22:09;12.80;;;2.25;;
49828;SDS011;35723;51.194;5.112;2023-04-12T12:24:35;14.38;;;2.30;;
49828;SDS011;35723;51.194;5.112;2023-04-12T12:27:01;12.57;;;2.15;;
49828;SDS011;35723;51.194;5.112;2023-04-12T12:29:33;17.05;;;2.83;;
49828;SDS011;35723;51.194;5.112;2023-04-12T12:32:00;15.63;;;2.80;;
49828;SDS011;35723;51.194;5.112;2023-04-12T12:34:30;16.20;;;2.88;;
49828;SDS011;35723;51.194;5.112;2023-04-12T12:36:58;17.75;;;3.08;;
49828;SDS011;35723;51.194;5.112;2023-04-12T12:39:24;14.93;;;2.80;;
49828;SDS011;35723;51.194;5.112;2023-04-12T12:41:53;16.00;;;3.05;;
49828;SDS011;35723;51.194;5.112;2023-04-12T12:44:21;16.08;;;2.97;;
49828;SDS011;35723;51.194;5.112;2023-04-12T12:46:47;17.52;;;2.35;;
49828;SDS011;35723;51.194;5.112;2023-04-12T12:49:13;18.25;;;2.80;;
49828;SDS011;35723;51.194;5.112;2023-04-12T12:51:40;11.30;;;2.33;;
49828;SDS011;35723;51.194;5.112;2023-04-12T12:54:06;12.85;;;2.17;;
49828;SDS011;35723;51.194;5.112;2023-04-12T12:56:32;14.63;;;2.83;;
49828;SDS011;35723;51.194;5.112;2023-04-12T12:58:59;14.45;;;2.20;;
49828;SDS011;35723;51.194;5.112;2023-04-12T13:01:25;15.18;;;2.20;;
49828;SDS011;35723;51.194;5.112;2023-04-12T13:03:51;11.52;;;1.90;;
49828;SDS011;35723;51.194;5.112;2023-04-12T13:06:17;8.82;;;1.92;;
49828;SDS011;35723;51.194;5.112;2023-04-12T13:08:43;10.98;;;2.25;;
49828;SDS011;35723;51.194;5.112;2023-04-12T13:11:08;9.13;;;2.00;;
49828;SDS011;35723;51.194;5.112;2023-04-12T13:13:34;8.15;;;2.10;;
49828;SDS011;35723;51.194;5.112;2023-04-12T13:16:00;7.60;;;2.08;;
49828;SDS011;35723;51.194;5.112;2023-04-12T13:18:26;8.30;;;2.15;;
49828;SDS011;35723;51.194;5.112;2023-04-12T13:20:51;8.63;;;2.15;;
49828;SDS011;35723;51.194;5.112;2023-04-12T13:23:17;12.55;;;2.90;;
49828;SDS011;35723;51.194;5.112;2023-04-12T13:25:43;32.75;;;10.88;;
49828;SDS011;35723;51.194;5.112;2023-04-12T13:28:08;22.80;;;8.13;;
49828;SDS011;35723;51.194;5.112;2023-04-12T13:30:34;13.40;;;3.60;;
49828;SDS011;35723;51.194;5.112;2023-04-12T13:33:00;16.02;;;2.50;;
49828;SDS011;35723;51.194;5.112;2023-04-12T13:35:25;11.60;;;1.95;;
49828;SDS011;35723;51.194;5.112;2023-04-12T13:37:51;9.63;;;2.25;;
49828;SDS011;35723;51.194;5.112;2023-04-12T13:40:17;7.43;;;2.05;;
49828;SDS011;35723;51.194;5.112;2023-04-12T13:42:42;4.63;;;1.50;;
49828;SDS011;35723;51.194;5.112;2023-04-12T13:45:08;6.90;;;1.90;;
49828;SDS011;35723;51.194;5.112;2023-04-12T13:47:35;8.02;;;1.77;;
49828;SDS011;35723;51.194;5.112;2023-04-12T13:50:01;8.88;;;2.00;;
49828;SDS011;35723;51.194;5.112;2023-04-12T13:52:26;11.43;;;1.92;;
49828;SDS011;35723;51.194;5.112;2023-04-12T13:54:52;9.70;;;1.88;;
49828;SDS011;35723;51.194;5.112;2023-04-12T13:57:18;9.35;;;2.10;;
49828;SDS011;35723;51.194;5.112;2023-04-12T13:59:43;7.90;;;1.88;;
49828;SDS011;35723;51.194;5.112;2023-04-12T14:02:09;6.97;;;2.15;;
49828;SDS011;35723;51.194;5.112;2023-04-12T14:04:35;8.48;;;1.58;;
49828;SDS011;35723;51.194;5.112;2023-04-12T14:07:13;9.30;;;1.88;;
49828;SDS011;35723;51.194;5.112;2023-04-12T14:09:38;9.60;;;1.73;;
49828;SDS011;35723;51.194;5.112;2023-04-12T14:12:04;10.90;;;2.05;;
49828;SDS011;35723;51.194;5.112;2023-04-12T14:14:30;5.82;;;1.75;;
49828;SDS011;35723;51.194;5.112;2023-04-12T14:16:55;10.30;;;2.17;;
49828;SDS011;35723;51.194;5.112;2023-04-12T14:19:22;8.38;;;1.83;;
49828;SDS011;35723;51.194;5.112;2023-04-12T14:21:48;8.30;;;1.65;;
49828;SDS011;35723;51.194;5.112;2023-04-12T14:24:14;5.53;;;1.20;;
49828;SDS011;35723;51.194;5.112;2023-04-12T14:26:40;3.58;;;1.00;;
49828;SDS011;35723;51.194;5.112;2023-04-12T14:29:06;4.38;;;1.20;;
49828;SDS011;35723;51.194;5.112;2023-04-12T14:31:34;5.20;;;1.45;;
49828;SDS011;35723;51.194;5.112;2023-04-12T14:34:03;8.60;;;1.50;;
49828;SDS011;35723;51.194;5.112;2023-04-12T14:36:29;5.85;;;1.50;;
49828;SDS011;35723;51.194;5.112;2023-04-12T14:38:55;10.68;;;1.52;;
49828;SDS011;35723;51.194;5.112;2023-04-12T14:41:21;9.57;;;1.75;;
49828;SDS011;35723;51.194;5.112;2023-04-12T14:43:47;7.75;;;1.45;;
49828;SDS011;35723;51.194;5.112;2023-04-12T14:46:14;8.82;;;1.75;;
49828;SDS011;35723;51.194;5.112;2023-04-12T14:48:41;5.75;;;1.67;;
49828;SDS011;35723;51.194;5.112;2023-04-12T14:51:08;5.80;;;1.70;;
49828;SDS011;35723;51.194;5.112;2023-04-12T14:53:34;8.32;;;1.55;;
49828;SDS011;35723;51.194;5.112;2023-04-12T14:55:59;10.48;;;2.20;;
49828;SDS011;35723;51.194;5.112;2023-04-12T14:58:26;8.27;;;1.70;;
49828;SDS011;35723;51.194;5.112;2023-04-12T15:00:53;9.30;;;1.60;;
49828;SDS011;35723;51.194;5.112;2023-04-12T15:03:20;8.05;;;1.73;;